Time;durP1;ratioP1;P1;durP2;ratioP2;P2;SDS_P1;SDS_P2;PMS_P1;PMS_P2;Temp;Humidity;BMP_temperature;BMP_pressure;BME280_temperature;BME280_humidity;BME280_pressure;Samples;Min_cycle;Max_cycle;Signal;HPM_P1;HPM_P2
2022/03/01 09:16:29;;;;;;;9.25;7.22;;;;;;;;;;5200553;27;20457;-63
2022/03/01 09:18:55;;;;;;;9.70;7.53;;;;;;;;;;5201348;27;20073;-63
2022/03/01 09:21:21;;;;;;;9.52;7.30;;;;;;;;;;5200992;27;20086;-63
2022/03/01 09:23:47;;;;;;;10.68;7.72;;;;;;;;;;5201331;27;20194;-63
2022/03/01 09:26:15;;;;;;;10.90;8.73;;;;;;;;;;5201437;27;20160;-63
2022/03/01 09:28:42;;;;;;;10.57;8.57;;;;;;;;;;5201214;27;20073;-63
2022/03/01 09:31:10;;;;;;;9.05;8.07;;;;;;;;;;5201017;27;20190;-63
2022/03/01 09:33:42;;;;;;;10.40;9.20;;;;;;;;;;5201198;27;20089;-62
2022/03/01 09:36:12;;;;;;;11.75;10.55;;;;;;;;;;5201520;27;20532;-62
2022/03/01 09:38:38;;;;;;;11.25;10.05;;;;;;;;;;5182055;27;20104;-62
2022/03/01 09:41:04;;;;;;;11.25;9.98;;;;;;;;;;5181919;27;20082;-64
2022/03/01 09:43:35;;;;;;;10.75;9.68;;;;;;;;;;5201319;27;20497;-65
2022/03/01 09:46:01;;;;;;;10.85;9.77;;;;;;;;;;5181759;27;20476;-65
2022/03/01 09:48:27;;;;;;;10.05;8.45;;;;;;;;;;5201069;27;20093;-63
2022/03/01 09:50:53;;;;;;;10.73;9.63;;;;;;;;;;5181774;27;20425;-65
2022/03/01 09:53:19;;;;;;;10.63;9.05;;;;;;;;;;5181801;27;20078;-65
2022/03/01 09:55:45;;;;;;;9.98;8.98;;;;;;;;;;5200826;27;20103;-65
2022/03/01 09:58:11;;;;;;;9.85;8.82;;;;;;;;;;5200992;27;20065;-64
2022/03/01 10:00:37;;;;;;;9.85;8.85;;;;;;;;;;5200903;27;20532;-64
2022/03/01 10:03:03;;;;;;;9.43;8.40;;;;;;;;;;5182307;27;20158;-65
2022/03/01 10:05:34;;;;;;;9.48;8.48;;;;;;;;;;5181748;27;20102;-62
2022/03/01 10:08:11;;;;;;;9.48;8.57;;;;;;;;;;5198617;27;20092;-59
2022/03/01 10:10:40;;;;;;;8.82;7.93;;;;;;;;;;5196475;27;20098;-64
2022/03/01 10:13:06;;;;;;;7.37;6.45;;;;;;;;;;5198486;27;20184;-65
2022/03/01 10:15:32;;;;;;;7.75;6.95;;;;;;;;;;5197094;27;20074;-65
2022/03/01 10:18:08;;;;;;;7.82;7.03;;;;;;;;;;5178727;27;20105;-63
2022/03/01 10:20:34;;;;;;;6.97;6.28;;;;;;;;;;5178178;27;20176;-64
2022/03/01 10:23:01;;;;;;;7.03;6.28;;;;;;;;;;5197457;27;20086;-63
2022/03/01 10:25:27;;;;;;;7.47;6.55;;;;;;;;;;5177907;27;20745;-64
2022/03/01 10:27:54;;;;;;;8.48;7.00;;;;;;;;;;5197434;27;20327;-64
2022/03/01 10:30:30;;;;;;;7.80;7.07;;;;;;;;;;5197171;27;20097;-64
2022/03/01 10:33:08;;;;;;;8.95;8.05;;;;;;;;;;5177959;27;20185;-62
2022/03/01 10:35:35;;;;;;;9.52;7.70;;;;;;;;;;5197343;27;20078;-62
2022/03/01 10:38:03;;;;;;;8.18;7.37;;;;;;;;;;5197325;27;20073;-63
2022/03/01 10:40:30;;;;;;;7.20;6.50;;;;;;;;;;5197601;27;20437;-63
2022/03/01 10:43:10;;;;;;;6.85;6.15;;;;;;;;;;5178222;27;20422;-62
2022/03/01 10:45:41;;;;;;;7.55;6.75;;;;;;;;;;5197267;27;20082;-62
2022/03/01 10:48:09;;;;;;;7.07;6.35;;;;;;;;;;5197691;27;20160;-62
2022/03/01 10:50:36;;;;;;;7.18;5.90;;;;;;;;;;5177738;27;20097;-61
2022/03/01 10:53:02;;;;;;;7.18;6.00;;;;;;;;;;5198337;27;20152;-61
2022/03/01 10:55:33;;;;;;;7.07;6.37;;;;;;;;;;5200569;27;20520;-62
2022/03/01 10:58:02;;;;;;;7.00;6.30;;;;;;;;;;5200659;27;20061;-64
2022/03/01 11:00:29;;;;;;;7.10;5.20;;;;;;;;;;5181516;27;20184;-64
2022/03/01 11:02:55;;;;;;;6.75;6.03;;;;;;;;;;5181519;27;20062;-64
2022/03/01 11:05:22;;;;;;;6.50;5.65;;;;;;;;;;5181240;27;20139;-60
2022/03/01 11:07:50;;;;;;;6.93;6.25;;;;;;;;;;5181453;27;20187;-63
2022/03/01 11:10:18;;;;;;;7.12;6.40;;;;;;;;;;5200436;27;20494;-62
2022/03/01 11:12:46;;;;;;;7.00;6.03;;;;;;;;;;5181523;27;20193;-62
2022/03/01 11:15:41;;;;;;;7.03;6.30;;;;;;;;;;5200546;27;20163;-62
2022/03/01 11:18:34;;;;;;;10.57;7.57;;;;;;;;;;5181197;27;20100;-62
2022/03/01 11:21:03;;;;;;;10.13;6.62;;;;;;;;;;5180967;27;20065;-62
2022/03/01 11:23:29;;;;;;;7.47;5.97;;;;;;;;;;5200398;27;20093;-61
2022/03/01 11:25:55;;;;;;;6.93;6.18;;;;;;;;;;5200537;27;20090;-62
2022/03/01 11:28:39;;;;;;;6.65;5.30;;;;;;;;;;5178429;27;20171;-63
2022/03/01 11:31:18;;;;;;;7.07;5.78;;;;;;;;;;5200506;27;20082;-62
2022/03/01 11:33:57;;;;;;;7.35;6.32;;;;;;;;;;5181426;27;20080;-62
2022/03/01 11:36:26;;;;;;;7.53;6.37;;;;;;;;;;5181559;27;20070;-63
2022/03/01 11:38:53;;;;;;;7.32;6.53;;;;;;;;;;5200540;27;20100;-63
2022/03/01 11:41:22;;;;;;;8.25;7.40;;;;;;;;;;5181489;27;20524;-63
2022/03/01 11:43:57;;;;;;;7.65;6.90;;;;;;;;;;5200421;27;20086;-63
2022/03/01 11:46:23;;;;;;;7.47;6.78;;;;;;;;;;5181007;27;20171;-62
2022/03/01 11:48:53;;;;;;;9.20;6.72;;;;;;;;;;5199975;27;20089;-61
2022/03/01 11:51:31;;;;;;;6.68;5.97;;;;;;;;;;5200466;27;20150;-61
2022/03/01 11:53:58;;;;;;;9.73;7.35;;;;;;;;;;5181222;27;20410;-61
2022/03/01 11:56:24;;;;;;;8.00;7.20;;;;;;;;;;5181125;27;20062;-60
2022/03/01 11:58:51;;;;;;;8.18;6.70;;;;;;;;;;5181277;27;20503;-61
2022/03/01 12:01:21;;;;;;;7.75;6.75;;;;;;;;;;5200668;27;20117;-60
2022/03/01 12:03:51;;;;;;;8.70;7.12;;;;;;;;;;5200468;27;20069;-62
2022/03/01 12:06:21;;;;;;;10.25;7.65;;;;;;;;;;5180996;27;20089;-62
2022/03/01 12:08:56;;;;;;;8.32;7.53;;;;;;;;;;5200347;27;20110;-62
2022/03/01 12:11:34;;;;;;;8.97;7.20;;;;;;;;;;5181284;27;20402;-63
2022/03/01 12:14:19;;;;;;;8.02;7.20;;;;;;;;;;5200434;27;20165;-63
2022/03/01 12:16:46;;;;;;;8.25;7.32;;;;;;;;;;5164060;27;20082;-63
2022/03/01 12:19:21;;;;;;;10.38;8.20;;;;;;;;;;5200315;27;20074;-61
2022/03/01 12:21:53;;;;;;;7.72;6.93;;;;;;;;;;5181005;27;20101;-62
2022/03/01 12:24:21;;;;;;;6.82;6.12;;;;;;;;;;5200403;27;20082;-63
2022/03/01 12:26:52;;;;;;;6.57;5.90;;;;;;;;;;5180859;27;20077;-62
2022/03/01 12:29:21;;;;;;;8.18;7.32;;;;;;;;;;5181125;27;20073;-62
2022/03/01 12:31:58;;;;;;;8.07;6.57;;;;;;;;;;5181273;27;20078;-61
2022/03/01 12:34:26;;;;;;;7.57;6.78;;;;;;;;;;5181084;27;20101;-62
2022/03/01 12:36:57;;;;;;;7.30;6.43;;;;;;;;;;5200344;27;20114;-63
2022/03/01 12:39:24;;;;;;;9.82;7.50;;;;;;;;;;5201282;27;20078;-62
2022/03/01 12:41:52;;;;;;;8.02;7.00;;;;;;;;;;5182551;27;20088;-62
2022/03/01 12:44:20;;;;;;;7.97;7.18;;;;;;;;;;5164781;27;20062;-63
2022/03/01 12:46:46;;;;;;;9.70;8.55;;;;;;;;;;5164941;27;20120;-62
2022/03/01 12:49:14;;;;;;;8.00;7.18;;;;;;;;;;5182206;27;20101;-63
2022/03/01 12:51:41;;;;;;;7.85;7.15;;;;;;;;;;5201478;27;20088;-63
2022/03/01 12:54:15;;;;;;;8.98;7.25;;;;;;;;;;5164959;27;20077;-64
2022/03/01 12:56:48;;;;;;;10.68;7.37;;;;;;;;;;5201144;27;20084;-63
2022/03/01 12:59:26;;;;;;;8.77;7.37;;;;;;;;;;5201498;27;20496;-64
2022/03/01 13:01:54;;;;;;;7.93;6.93;;;;;;;;;;5201284;27;20090;-63
2022/03/01 13:04:24;;;;;;;8.77;7.87;;;;;;;;;;5201377;27;20177;-63
2022/03/01 13:06:50;;;;;;;9.30;7.15;;;;;;;;;;5201291;27;20164;-63
2022/03/01 13:09:17;;;;;;;9.32;7.72;;;;;;;;;;5182454;27;20094;-63
2022/03/01 13:11:47;;;;;;;9.38;7.62;;;;;;;;;;5164611;27;20078;-63
2022/03/01 13:14:16;;;;;;;9.65;7.15;;;;;;;;;;5201195;27;20093;-63
2022/03/01 13:16:52;;;;;;;9.07;7.78;;;;;;;;;;5182626;27;20089;-63
2022/03/01 13:19:25;;;;;;;8.23;7.43;;;;;;;;;;5182002;27;20066;-63
2022/03/01 13:22:01;;;;;;;9.02;7.78;;;;;;;;;;5181548;27;20081;-62
2022/03/01 13:24:35;;;;;;;9.13;8.07;;;;;;;;;;5182032;27;20520;-63
2022/03/01 13:27:05;;;;;;;9.77;8.15;;;;;;;;;;5201368;27;20070;-62
2022/03/01 13:29:33;;;;;;;8.50;7.60;;;;;;;;;;5201157;27;20065;-63
2022/03/01 13:32:28;;;;;;;9.35;7.68;;;;;;;;;;5201281;27;20468;-62
2022/03/01 13:35:07;;;;;;;8.60;7.80;;;;;;;;;;5162563;27;20090;-63
2022/03/01 13:37:34;;;;;;;8.90;8.00;;;;;;;;;;5181926;27;20494;-62
2022/03/01 13:40:00;;;;;;;9.32;8.38;;;;;;;;;;5164425;27;20479;-63
2022/03/01 13:42:31;;;;;;;11.07;8.38;;;;;;;;;;5200997;27;20074;-63
2022/03/01 13:44:57;;;;;;;12.20;9.75;;;;;;;;;;5181668;27;20092;-61
2022/03/01 13:47:44;;;;;;;10.50;9.40;;;;;;;;;;5199260;27;20149;-63
2022/03/01 13:50:13;;;;;;;12.50;9.82;;;;;;;;;;5200902;27;20081;-63
2022/03/01 13:52:41;;;;;;;11.25;10.05;;;;;;;;;;5164542;27;20135;-64
2022/03/01 13:55:07;;;;;;;13.45;10.60;;;;;;;;;;5181573;27;20531;-63
2022/03/01 13:57:35;;;;;;;11.85;10.43;;;;;;;;;;5200938;27;20080;-64
2022/03/01 14:00:07;;;;;;;12.63;10.52;;;;;;;;;;5181785;27;20116;-65
2022/03/01 14:02:33;;;;;;;14.30;11.68;;;;;;;;;;5201114;27;20081;-65
2022/03/01 14:05:08;;;;;;;12.27;10.57;;;;;;;;;;5181707;27;20062;-63
2022/03/01 14:07:35;;;;;;;12.45;11.15;;;;;;;;;;5200848;27;20114;-64
2022/03/01 14:10:03;;;;;;;13.88;10.48;;;;;;;;;;5200612;27;20951;-64
2022/03/01 14:12:34;;;;;;;15.20;11.35;;;;;;;;;;5200731;27;20073;-64
2022/03/01 14:15:00;;;;;;;13.18;11.77;;;;;;;;;;5163561;27;20820;-63
2022/03/01 14:17:26;;;;;;;12.48;9.38;;;;;;;;;;5200781;27;20105;-66
2022/03/01 14:19:54;;;;;;;15.30;11.65;;;;;;;;;;5181540;27;20379;-63
2022/03/01 14:22:21;;;;;;;13.45;12.05;;;;;;;;;;5201088;27;20084;-67
2022/03/01 14:25:05;;;;;;;14.90;10.77;;;;;;;;;;5181493;27;20159;-68
2022/03/01 14:27:31;;;;;;;12.98;11.02;;;;;;;;;;5200816;27;20195;-69
2022/03/01 14:29:57;;;;;;;13.27;11.77;;;;;;;;;;5200562;27;20237;-69
2022/03/01 14:32:24;;;;;;;13.60;11.90;;;;;;;;;;5200728;27;20081;-68
2022/03/01 14:34:50;;;;;;;15.07;12.93;;;;;;;;;;5200569;27;20089;-70
2022/03/01 14:37:16;;;;;;;15.07;12.82;;;;;;;;;;5181445;27;20089;-68
2022/03/01 14:39:42;;;;;;;18.73;16.73;;;;;;;;;;5200564;27;20109;-70
2022/03/01 14:42:08;;;;;;;19.15;14.95;;;;;;;;;;5181333;27;20090;-70
2022/03/01 14:44:34;;;;;;;18.52;16.27;;;;;;;;;;5200232;27;20442;-68
2022/03/01 14:47:00;;;;;;;18.92;15.98;;;;;;;;;;5200434;27;20069;-68
2022/03/01 14:49:26;;;;;;;19.42;15.90;;;;;;;;;;5200480;27;20151;-68
2022/03/01 14:51:52;;;;;;;22.27;19.08;;;;;;;;;;5181943;27;20170;-69
2022/03/01 14:54:18;;;;;;;26.75;19.52;;;;;;;;;;5200887;27;20066;-68
2022/03/01 14:56:44;;;;;;;25.20;19.75;;;;;;;;;;5181397;27;20094;-69
2022/03/01 14:59:10;;;;;;;18.85;15.98;;;;;;;;;;5200531;27;20621;-69
2022/03/01 15:01:39;;;;;;;17.73;15.65;;;;;;;;;;5199977;27;20158;-68
2022/03/01 15:04:05;;;;;;;15.20;13.40;;;;;;;;;;5197690;27;20093;-69
2022/03/01 15:06:31;;;;;;;17.52;14.60;;;;;;;;;;5180808;27;20174;-70
2022/03/01 15:08:57;;;;;;;17.60;13.48;;;;;;;;;;5180649;27;20089;-70
2022/03/01 15:11:24;;;;;;;12.93;11.32;;;;;;;;;;5199714;27;20080;-70
2022/03/01 15:13:50;;;;;;;14.55;12.63;;;;;;;;;;5180342;27;20097;-69
2022/03/01 15:16:16;;;;;;;15.00;13.38;;;;;;;;;;5199599;27;20489;-68
2022/03/01 15:18:43;;;;;;;16.02;12.52;;;;;;;;;;5181079;27;20078;-65
2022/03/01 15:21:10;;;;;;;13.70;12.07;;;;;;;;;;5200274;27;20194;-68
2022/03/01 15:23:37;;;;;;;13.90;11.93;;;;;;;;;;5182208;27;20658;-68
2022/03/01 15:26:03;;;;;;;13.85;12.35;;;;;;;;;;5200795;27;20062;-68
2022/03/01 15:28:30;;;;;;;19.08;15.70;;;;;;;;;;5181488;27;20576;-69
2022/03/01 15:30:56;;;;;;;17.33;14.52;;;;;;;;;;5200797;27;20066;-70
2022/03/01 15:33:22;;;;;;;22.08;16.15;;;;;;;;;;5181148;27;20076;-67
2022/03/01 15:35:48;;;;;;;15.15;12.75;;;;;;;;;;5200329;27;20082;-64
2022/03/01 15:38:17;;;;;;;13.40;11.70;;;;;;;;;;5200488;27;20062;-65
2022/03/01 15:40:43;;;;;;;13.32;11.93;;;;;;;;;;5180988;27;20097;-75
2022/03/01 15:43:09;;;;;;;15.93;12.43;;;;;;;;;;5181084;27;20076;-60
2022/03/01 15:45:35;;;;;;;12.88;11.45;;;;;;;;;;5200302;27;20151;-60
2022/03/01 16:41:17;;;;;;;12.43;9.82;;;;;;;;;;5158450;27;20618;-66
2022/03/01 16:43:43;;;;;;;14.80;10.82;;;;;;;;;;5159354;27;20110;-65
2022/03/01 16:46:09;;;;;;;11.38;9.82;;;;;;;;;;5179811;27;20085;-66
2022/03/01 16:48:35;;;;;;;10.93;9.82;;;;;;;;;;5178675;27;20086;-65
2022/03/01 16:51:03;;;;;;;11.55;9.98;;;;;;;;;;5126106;27;20158;-65
2022/03/01 16:53:30;;;;;;;11.52;10.20;;;;;;;;;;5180695;27;20082;-65
2022/03/01 16:55:56;;;;;;;11.95;10.70;;;;;;;;;;5161106;27;20079;-65
2022/03/01 16:58:23;;;;;;;11.40;10.20;;;;;;;;;;5161067;27;20500;-66
2022/03/01 17:00:49;;;;;;;12.25;10.18;;;;;;;;;;5161052;27;20156;-65
2022/03/01 17:03:15;;;;;;;11.90;10.25;;;;;;;;;;5180526;27;20097;-63
2022/03/01 17:05:43;;;;;;;11.88;10.55;;;;;;;;;;5180006;27;20433;-64
2022/03/01 17:08:10;;;;;;;14.07;11.35;;;;;;;;;;5180149;27;20078;-62
2022/03/01 17:10:36;;;;;;;13.13;10.80;;;;;;;;;;5160768;27;20098;-66
2022/03/01 17:13:02;;;;;;;11.90;10.32;;;;;;;;;;5180129;27;20093;-62
2022/03/01 17:15:30;;;;;;;13.13;11.23;;;;;;;;;;5180039;27;20606;-68
2022/03/01 17:18:01;;;;;;;11.85;10.27;;;;;;;;;;5161506;27;20074;-69
2022/03/01 17:20:28;;;;;;;15.18;12.35;;;;;;;;;;5143891;27;20158;-69
2022/03/01 17:22:54;;;;;;;14.70;11.55;;;;;;;;;;5180246;27;20190;-69
2022/03/01 17:25:20;;;;;;;14.73;11.88;;;;;;;;;;5161141;27;20515;-65
2022/03/01 17:27:46;;;;;;;14.77;12.23;;;;;;;;;;5180073;27;20089;-64
2022/03/01 17:30:13;;;;;;;14.52;12.50;;;;;;;;;;5180182;27;20110;-63
2022/03/01 17:32:39;;;;;;;12.05;10.18;;;;;;;;;;5180231;27;20062;-64
2022/03/01 17:35:06;;;;;;;14.90;12.25;;;;;;;;;;5180028;27;20417;-68
2022/03/01 17:37:33;;;;;;;14.57;11.25;;;;;;;;;;5161234;27;20180;-64
2022/03/01 17:39:59;;;;;;;11.73;10.30;;;;;;;;;;5179738;27;20425;-68
2022/03/01 17:42:26;;;;;;;14.85;12.25;;;;;;;;;;5180168;27;20112;-64
2022/03/01 17:44:54;;;;;;;11.55;9.60;;;;;;;;;;5179881;27;20085;-65
2022/03/01 17:47:21;;;;;;;11.65;9.90;;;;;;;;;;5180040;27;20069;-63
2022/03/01 17:49:47;;;;;;;12.68;9.90;;;;;;;;;;5179899;27;20088;-64
2022/03/01 17:52:13;;;;;;;11.30;9.70;;;;;;;;;;5180037;27;20089;-64
2022/03/01 17:54:41;;;;;;;10.48;9.23;;;;;;;;;;5180020;27;20500;-72
2022/03/01 17:57:07;;;;;;;11.63;9.80;;;;;;;;;;5160750;27;20077;-68
2022/03/01 17:59:34;;;;;;;12.65;10.70;;;;;;;;;;5179847;27;20069;-66
2022/03/01 18:02:00;;;;;;;11.57;10.13;;;;;;;;;;5160623;27;20082;-65
2022/03/01 18:04:26;;;;;;;10.45;9.35;;;;;;;;;;5179981;27;20440;-67
2022/03/01 18:06:53;;;;;;;11.35;9.93;;;;;;;;;;5179652;27;20563;-67
2022/03/01 18:09:19;;;;;;;10.43;9.27;;;;;;;;;;5179840;27;20077;-67
2022/03/01 18:11:49;;;;;;;12.50;9.15;;;;;;;;;;5179778;27;20065;-68
2022/03/01 18:14:17;;;;;;;11.43;10.00;;;;;;;;;;5178350;27;20253;-69
2022/03/01 18:16:44;;;;;;;12.10;9.82;;;;;;;;;;5179700;27;20097;-68
2022/03/01 18:19:10;;;;;;;11.80;10.07;;;;;;;;;;5161033;27;20453;-68
2022/03/01 18:21:36;;;;;;;13.15;10.15;;;;;;;;;;5179673;27;20084;-68
2022/03/01 18:24:02;;;;;;;10.82;9.43;;;;;;;;;;5160478;27;20493;-66
2022/03/01 18:26:29;;;;;;;12.10;10.40;;;;;;;;;;5143117;27;20102;-74
2022/03/01 18:28:56;;;;;;;13.60;10.88;;;;;;;;;;5160833;27;20402;-73
2022/03/01 18:31:22;;;;;;;13.93;11.52;;;;;;;;;;5143268;27;20090;-74
2022/03/01 18:33:49;;;;;;;10.63;9.48;;;;;;;;;;5160643;27;20175;-74
2022/03/01 18:36:16;;;;;;;10.95;9.30;;;;;;;;;;5179451;27;20076;-74
2022/03/01 18:38:43;;;;;;;12.35;10.20;;;;;;;;;;5160738;27;20173;-72
2022/03/01 18:41:09;;;;;;;12.45;10.65;;;;;;;;;;5179645;27;20062;-72
2022/03/01 18:43:36;;;;;;;12.10;10.05;;;;;;;;;;5160453;27;20088;-72
2022/03/01 18:46:03;;;;;;;13.45;9.80;;;;;;;;;;5180093;27;20081;-73
2022/03/01 18:48:29;;;;;;;13.32;10.23;;;;;;;;;;5143776;27;20157;-73
2022/03/01 18:50:55;;;;;;;13.18;11.02;;;;;;;;;;5143642;27;20097;-70
2022/03/01 18:53:21;;;;;;;13.60;11.65;;;;;;;;;;5179562;27;20109;-70
2022/03/01 18:55:48;;;;;;;12.90;11.35;;;;;;;;;;5179461;27;20097;-70
2022/03/01 18:58:14;;;;;;;16.52;11.73;;;;;;;;;;5143081;27;20082;-71
2022/03/01 19:00:41;;;;;;;13.80;12.35;;;;;;;;;;5160458;27;20086;-72
2022/03/01 19:03:08;;;;;;;13.90;12.10;;;;;;;;;;5179499;27;20468;-71
2022/03/01 19:05:39;;;;;;;13.68;11.02;;;;;;;;;;5161208;27;20070;-69
2022/03/01 19:08:07;;;;;;;14.38;11.30;;;;;;;;;;5139570;27;20102;-70
2022/03/01 19:10:33;;;;;;;11.10;9.88;;;;;;;;;;5156353;27;20177;-71
2022/03/01 19:13:00;;;;;;;11.73;10.23;;;;;;;;;;5178416;27;20093;-69
2022/03/01 19:15:26;;;;;;;13.80;10.23;;;;;;;;;;5160382;27;20082;-69
2022/03/01 19:17:53;;;;;;;11.12;9.85;;;;;;;;;;5179452;27;20074;-73
2022/03/01 19:20:19;;;;;;;13.68;11.40;;;;;;;;;;5143487;27;20073;-72
2022/03/01 19:22:45;;;;;;;11.48;10.13;;;;;;;;;;5126335;27;20085;-72
2022/03/01 19:25:12;;;;;;;14.95;11.12;;;;;;;;;;5179595;27;20184;-72
2022/03/01 19:27:39;;;;;;;13.68;11.10;;;;;;;;;;5160605;27;20069;-72
2022/03/01 19:30:07;;;;;;;14.00;11.27;;;;;;;;;;5160373;27;20093;-68
2022/03/01 19:32:33;;;;;;;14.52;12.80;;;;;;;;;;5179632;27;20076;-68
2022/03/01 19:35:02;;;;;;;14.85;11.68;;;;;;;;;;5160604;27;20109;-70
2022/03/01 19:37:28;;;;;;;14.73;12.57;;;;;;;;;;5126553;27;20092;-70
2022/03/01 19:39:54;;;;;;;15.57;13.85;;;;;;;;;;5179201;27;20081;-72
2022/03/01 19:42:20;;;;;;;14.25;12.50;;;;;;;;;;5143232;27;20100;-71
2022/03/01 19:44:48;;;;;;;16.30;13.75;;;;;;;;;;5160604;27;20074;-71
2022/03/01 19:47:14;;;;;;;17.50;13.52;;;;;;;;;;5160716;27;20073;-71
2022/03/01 19:49:40;;;;;;;16.70;14.10;;;;;;;;;;5180831;27;20121;-71
2022/03/01 19:52:07;;;;;;;15.35;13.68;;;;;;;;;;5181171;27;20066;-71
2022/03/01 19:54:34;;;;;;;15.43;12.73;;;;;;;;;;5127282;27;20086;-72
2022/03/01 19:57:00;;;;;;;15.82;13.10;;;;;;;;;;5144597;27;20105;-72
2022/03/01 19:59:26;;;;;;;13.68;12.07;;;;;;;;;;5161802;27;20082;-71
2022/03/01 20:01:52;;;;;;;15.27;12.65;;;;;;;;;;5161696;27;20501;-70
2022/03/01 20:04:18;;;;;;;13.00;11.60;;;;;;;;;;5180686;27;20082;-71
2022/03/01 20:06:45;;;;;;;13.93;11.35;;;;;;;;;;5161864;27;20268;-71
2022/03/01 20:09:11;;;;;;;12.93;10.93;;;;;;;;;;5161631;27;20081;-72
2022/03/01 20:11:37;;;;;;;14.52;12.80;;;;;;;;;;5161722;27;20094;-72
2022/03/01 20:14:03;;;;;;;13.30;11.75;;;;;;;;;;5161912;27;20086;-71
2022/03/01 20:16:29;;;;;;;15.38;12.98;;;;;;;;;;5161756;27;20082;-72
2022/03/01 20:18:55;;;;;;;15.02;12.80;;;;;;;;;;5161472;27;20589;-72
2022/03/01 20:21:21;;;;;;;15.10;12.55;;;;;;;;;;5144442;27;20494;-71
2022/03/01 20:23:47;;;;;;;17.65;13.55;;;;;;;;;;5144114;27;20079;-71
2022/03/01 20:26:15;;;;;;;16.87;13.73;;;;;;;;;;5161521;27;20191;-71
2022/03/01 20:28:43;;;;;;;14.32;12.50;;;;;;;;;;5144429;27;20101;-70
2022/03/01 20:31:09;;;;;;;15.10;12.48;;;;;;;;;;5161565;27;20156;-71
2022/03/01 20:33:35;;;;;;;15.68;12.23;;;;;;;;;;5180615;27;20066;-70
2022/03/01 20:36:03;;;;;;;16.27;12.85;;;;;;;;;;5180660;27;20082;-70
2022/03/01 20:38:29;;;;;;;16.48;13.18;;;;;;;;;;5161758;27;20077;-70
2022/03/01 20:40:55;;;;;;;17.62;13.30;;;;;;;;;;5161309;27;20074;-70
2022/03/01 20:43:21;;;;;;;16.95;13.45;;;;;;;;;;5180672;27;20082;-71
2022/03/01 20:45:47;;;;;;;16.45;12.48;;;;;;;;;;5161325;27;20092;-71
2022/03/01 20:48:14;;;;;;;15.13;12.37;;;;;;;;;;5161351;27;20104;-70
2022/03/01 20:50:42;;;;;;;14.50;12.32;;;;;;;;;;5180785;27;20084;-70
2022/03/01 20:53:11;;;;;;;16.52;12.77;;;;;;;;;;5161991;27;20097;-72
2022/03/01 20:55:37;;;;;;;14.73;13.13;;;;;;;;;;5180501;27;20613;-71
2022/03/01 20:58:04;;;;;;;16.65;11.52;;;;;;;;;;5161759;27;20456;-71
2022/03/01 21:00:30;;;;;;;14.65;13.07;;;;;;;;;;5143992;27;20584;-69
2022/03/01 21:02:56;;;;;;;14.45;12.75;;;;;;;;;;5161473;27;20584;-69
2022/03/01 21:05:23;;;;;;;17.33;14.70;;;;;;;;;;5161204;27;20086;-69
2022/03/01 21:07:54;;;;;;;18.40;14.98;;;;;;;;;;5180344;27;20085;-70
2022/03/01 21:10:21;;;;;;;17.30;15.10;;;;;;;;;;5161701;27;20065;-70
2022/03/01 21:12:50;;;;;;;19.00;15.75;;;;;;;;;;5161504;27;20092;-69
2022/03/01 21:15:17;;;;;;;17.73;13.35;;;;;;;;;;5161105;27;20557;-69
2022/03/01 21:17:43;;;;;;;16.02;13.80;;;;;;;;;;5161081;27;20191;-70
2022/03/01 21:20:11;;;;;;;18.55;15.00;;;;;;;;;;5161549;27;20077;-70
2022/03/01 21:22:37;;;;;;;17.58;13.60;;;;;;;;;;5180056;27;20076;-69
2022/03/01 21:25:05;;;;;;;16.83;14.32;;;;;;;;;;5161161;27;20074;-69
2022/03/01 21:27:31;;;;;;;15.65;13.95;;;;;;;;;;5161294;27;20081;-70
2022/03/01 21:29:57;;;;;;;14.23;12.63;;;;;;;;;;5161508;27;20073;-69
2022/03/01 21:32:24;;;;;;;14.98;12.68;;;;;;;;;;5144009;27;20070;-72
2022/03/01 21:34:50;;;;;;;15.55;12.45;;;;;;;;;;5161195;27;20221;-70
2022/03/01 21:37:16;;;;;;;15.77;13.05;;;;;;;;;;5144170;27;20093;-69
2022/03/01 21:39:42;;;;;;;14.40;12.77;;;;;;;;;;5161329;27;20097;-70
2022/03/01 21:42:09;;;;;;;13.95;12.32;;;;;;;;;;5160928;27;20102;-69
2022/03/01 21:44:35;;;;;;;16.98;14.30;;;;;;;;;;5161023;27;20421;-70
2022/03/01 21:47:02;;;;;;;17.17;13.73;;;;;;;;;;5180109;27;20090;-70
2022/03/01 21:49:29;;;;;;;17.80;14.82;;;;;;;;;;5161431;27;20188;-70
2022/03/01 21:51:55;;;;;;;18.15;14.15;;;;;;;;;;5161474;27;20173;-71
2022/03/01 21:54:21;;;;;;;16.92;14.48;;;;;;;;;;5161132;27;20173;-70
2022/03/01 21:56:47;;;;;;;16.40;14.18;;;;;;;;;;5161092;27;20153;-70
2022/03/01 21:59:13;;;;;;;19.37;14.15;;;;;;;;;;5179872;27;20066;-70
2022/03/01 22:01:39;;;;;;;19.50;15.98;;;;;;;;;;5180087;27;20067;-68
2022/03/01 22:04:06;;;;;;;18.12;15.45;;;;;;;;;;5179899;27;20066;-69
2022/03/01 22:06:32;;;;;;;17.10;15.32;;;;;;;;;;5179995;27;20082;-69
2022/03/01 22:08:58;;;;;;;17.08;15.27;;;;;;;;;;5161263;27;20060;-69
2022/03/01 22:11:24;;;;;;;20.10;15.52;;;;;;;;;;5179942;27;20069;-68
2022/03/01 22:13:50;;;;;;;17.77;15.18;;;;;;;;;;5161304;27;20485;-69
2022/03/01 22:16:16;;;;;;;17.80;14.77;;;;;;;;;;5180064;27;20097;-68
2022/03/01 22:18:42;;;;;;;15.60;13.77;;;;;;;;;;5179951;27;20062;-68
2022/03/01 22:21:08;;;;;;;14.40;12.10;;;;;;;;;;5161250;27;20062;-68
2022/03/01 22:23:35;;;;;;;16.48;14.35;;;;;;;;;;5160948;27;20165;-68
2022/03/01 22:26:01;;;;;;;17.40;14.87;;;;;;;;;;5144353;27;20379;-69
2022/03/01 22:28:27;;;;;;;16.58;14.02;;;;;;;;;;5160870;27;20077;-69
2022/03/01 22:30:53;;;;;;;18.92;13.07;;;;;;;;;;5160734;27;20390;-67
2022/03/01 22:33:19;;;;;;;18.58;13.55;;;;;;;;;;5160706;27;20493;-69
2022/03/01 22:35:45;;;;;;;16.08;13.00;;;;;;;;;;5179922;27;20163;-69
2022/03/01 22:38:12;;;;;;;14.65;12.68;;;;;;;;;;5143799;27;20152;-69
2022/03/01 22:40:38;;;;;;;15.23;12.90;;;;;;;;;;5179648;27;20409;-68
2022/03/01 22:43:06;;;;;;;15.43;13.02;;;;;;;;;;5160912;27;20090;-69
2022/03/01 22:45:32;;;;;;;15.43;13.40;;;;;;;;;;5160805;27;20082;-68
2022/03/01 22:47:59;;;;;;;13.38;11.60;;;;;;;;;;5160968;27;20066;-68
2022/03/01 22:50:27;;;;;;;13.27;11.85;;;;;;;;;;5179851;27;20069;-67
2022/03/01 22:52:54;;;;;;;14.00;12.25;;;;;;;;;;5143228;27;20492;-68
2022/03/01 22:55:22;;;;;;;15.15;11.63;;;;;;;;;;5160495;27;20188;-69
2022/03/01 22:57:48;;;;;;;13.93;11.45;;;;;;;;;;5179602;27;20180;-69
2022/03/01 23:00:26;;;;;;;16.05;13.35;;;;;;;;;;5160844;27;20096;-69
2022/03/01 23:02:53;;;;;;;19.02;15.55;;;;;;;;;;5160279;27;20081;-69
2022/03/01 23:05:19;;;;;;;17.30;14.48;;;;;;;;;;5179945;27;20066;-69
2022/03/01 23:07:45;;;;;;;16.55;13.35;;;;;;;;;;5160931;27;20069;-69
2022/03/01 23:10:12;;;;;;;16.87;14.00;;;;;;;;;;5179347;27;20062;-69
2022/03/01 23:12:39;;;;;;;16.05;14.38;;;;;;;;;;5160263;27;20096;-68
2022/03/01 23:15:06;;;;;;;15.55;13.85;;;;;;;;;;5125857;27;20481;-69
2022/03/01 23:17:32;;;;;;;25.48;16.30;;;;;;;;;;5160830;27;20065;-69
2022/03/01 23:19:58;;;;;;;32.13;15.88;;;;;;;;;;5126060;27;20089;-69
2022/03/01 23:22:24;;;;;;;33.03;17.30;;;;;;;;;;5160072;27;20078;-69
2022/03/01 23:24:51;;;;;;;67.90;16.67;;;;;;;;;;5180029;27;20086;-67
2022/03/01 23:27:17;;;;;;;47.05;13.43;;;;;;;;;;5160606;27;20120;-69
2022/03/01 23:29:44;;;;;;;35.00;13.55;;;;;;;;;;5179447;27;20446;-69
2022/03/01 23:32:10;;;;;;;46.00;13.60;;;;;;;;;;5126020;27;20088;-69
2022/03/01 23:34:37;;;;;;;29.30;9.07;;;;;;;;;;5125602;27;20501;-69
2022/03/01 23:37:05;;;;;;;17.37;8.50;;;;;;;;;;5179214;27;20062;-69
2022/03/01 23:39:32;;;;;;;14.23;8.98;;;;;;;;;;5160678;27;20086;-69
2022/03/01 23:41:59;;;;;;;15.35;7.57;;;;;;;;;;5160196;27;20160;-69
2022/03/01 23:44:26;;;;;;;18.35;8.32;;;;;;;;;;5160328;27;20104;-68
2022/03/01 23:46:52;;;;;;;16.20;8.77;;;;;;;;;;5179323;27;20070;-70
2022/03/01 23:49:18;;;;;;;10.77;7.72;;;;;;;;;;5160212;27;20504;-70
2022/03/01 23:51:44;;;;;;;9.30;8.15;;;;;;;;;;5142889;27;20484;-71
